Terminal Aerodrome Forecast
Issued by NWS

Current Version | Previous Version | Text Only | Print | Product List | Glossary Off
Versions: 1 2 3 4 5 6 7 8 9 10 11 12

000
FTUS41 KRNK 161129
TAFLWB
TAF
KLWB 161129Z 1612/1712 34005KT P6SM FEW028
     FM161500 VRB04KT P6SM SKC
     FM170000 11004KT P6SM SKC=

USA.gov is the U.S. government's official web portal to all federal, state and local government web resources and services.